KRDU

Raleigh-Durham International Airport

Raleigh/Durham, North Carolina, USA
KRDU 202337Z 2100/2124 VRB03KT P6SM FEW250
Issued Valid From Valid To
Apr-20 @ 23:37 UTC
(4 hours ago)
Apr-21 @ 00:00 UTC
(4 hours ago)
Apr-22 @ 00:00 UTC
(in 20 hours)
Apr-21 @ 00:00 to Apr-22 @ 00:00
KRDU 202337Z 2100/2124 VRB03KT P6SM FEW250
Wind Visibility Clouds
Variable at 3 knots Greater than 6 miles
  • Few at 25,000' AGL
KRDU 202337Z 2100/2124 VRB03KT P6SM FEW250
Issued Apr-20 @ 23:37 UTC
(4 hours ago)
Valid From Apr-21 @ 00:00 UTC
(4 hours ago)
Valid To Apr-22 @ 00:00 UTC
(in 20 hours)
Apr-21 @ 00:00 - Apr-22 @ 00:00
Wind Visibility
Variable at 3 knots Greater than 6 miles
Clouds
  • Few at 25,000' AGL